sensor_id;sensor_type;location;lat;lon;timestamp;temperature;humidity
13412;DHT22;6777;51.474;7.218;2022-08-19T00:00:36;25.80;55.30
13412;DHT22;6777;51.474;7.218;2022-08-19T00:03:04;25.80;55.40
13412;DHT22;6777;51.474;7.218;2022-08-19T00:05:32;25.70;55.30
13412;DHT22;6777;51.474;7.218;2022-08-19T00:08:02;25.70;55.40
13412;DHT22;6777;51.474;7.218;2022-08-19T00:10:29;25.70;55.50
13412;DHT22;6777;51.474;7.218;2022-08-19T00:12:57;25.70;55.40
13412;DHT22;6777;51.474;7.218;2022-08-19T00:15:24;25.70;55.50
13412;DHT22;6777;51.474;7.218;2022-08-19T00:17:51;25.70;55.50
13412;DHT22;6777;51.474;7.218;2022-08-19T00:20:20;25.70;55.60
13412;DHT22;6777;51.474;7.218;2022-08-19T00:22:48;25.70;55.70
13412;DHT22;6777;51.474;7.218;2022-08-19T00:25:17;25.60;55.60
13412;DHT22;6777;51.474;7.218;2022-08-19T00:27:44;25.60;55.70
13412;DHT22;6777;51.474;7.218;2022-08-19T00:30:13;25.60;55.70
13412;DHT22;6777;51.474;7.218;2022-08-19T00:32:40;25.60;55.80
13412;DHT22;6777;51.474;7.218;2022-08-19T00:35:08;25.60;55.80
13412;DHT22;6777;51.474;7.218;2022-08-19T00:37:36;25.60;55.80
13412;DHT22;6777;51.474;7.218;2022-08-19T00:40:05;25.70;55.80
13412;DHT22;6777;51.474;7.218;2022-08-19T00:42:34;25.50;55.80
13412;DHT22;6777;51.474;7.218;2022-08-19T00:45:09;25.50;55.90
13412;DHT22;6777;51.474;7.218;2022-08-19T00:47:39;25.50;56.20
13412;DHT22;6777;51.474;7.218;2022-08-19T00:50:08;25.40;55.90
13412;DHT22;6777;51.474;7.218;2022-08-19T00:52:40;25.50;56.00
13412;DHT22;6777;51.474;7.218;2022-08-19T00:55:13;25.40;56.00
13412;DHT22;6777;51.474;7.218;2022-08-19T00:57:46;25.40;56.10
13412;DHT22;6777;51.474;7.218;2022-08-19T01:00:18;25.40;56.10
13412;DHT22;6777;51.474;7.218;2022-08-19T01:02:46;25.40;56.10
13412;DHT22;6777;51.474;7.218;2022-08-19T01:05:17;25.40;56.10
13412;DHT22;6777;51.474;7.218;2022-08-19T01:07:47;25.40;56.20
13412;DHT22;6777;51.474;7.218;2022-08-19T01:10:16;25.40;56.20
13412;DHT22;6777;51.474;7.218;2022-08-19T01:12:48;25.40;56.30
13412;DHT22;6777;51.474;7.218;2022-08-19T01:15:18;25.40;56.30
13412;DHT22;6777;51.474;7.218;2022-08-19T01:17:47;25.30;56.20
13412;DHT22;6777;51.474;7.218;2022-08-19T01:20:17;25.30;56.20
13412;DHT22;6777;51.474;7.218;2022-08-19T01:22:51;25.40;56.40
13412;DHT22;6777;51.474;7.218;2022-08-19T01:25:22;25.30;56.30
13412;DHT22;6777;51.474;7.218;2022-08-19T01:27:52;25.30;56.30
13412;DHT22;6777;51.474;7.218;2022-08-19T01:30:23;25.30;56.30
13412;DHT22;6777;51.474;7.218;2022-08-19T01:32:52;25.20;56.30
13412;DHT22;6777;51.474;7.218;2022-08-19T01:35:21;25.20;56.30
13412;DHT22;6777;51.474;7.218;2022-08-19T01:37:53;25.20;56.30
13412;DHT22;6777;51.474;7.218;2022-08-19T01:40:23;25.30;56.50
13412;DHT22;6777;51.474;7.218;2022-08-19T01:42:53;25.20;56.40
13412;DHT22;6777;51.474;7.218;2022-08-19T01:45:22;25.20;56.40
13412;DHT22;6777;51.474;7.218;2022-08-19T01:47:52;25.10;56.40
13412;DHT22;6777;51.474;7.218;2022-08-19T01:50:19;25.20;56.40
13412;DHT22;6777;51.474;7.218;2022-08-19T01:52:46;25.20;57.20
13412;DHT22;6777;51.474;7.218;2022-08-19T01:55:19;25.10;56.50
13412;DHT22;6777;51.474;7.218;2022-08-19T01:57:50;25.10;56.60
13412;DHT22;6777;51.474;7.218;2022-08-19T02:00:20;25.00;56.60
13412;DHT22;6777;51.474;7.218;2022-08-19T02:02:49;25.10;56.60
13412;DHT22;6777;51.474;7.218;2022-08-19T02:05:16;25.10;56.60
13412;DHT22;6777;51.474;7.218;2022-08-19T02:07:47;25.00;56.60
13412;DHT22;6777;51.474;7.218;2022-08-19T02:10:19;25.00;56.70
13412;DHT22;6777;51.474;7.218;2022-08-19T02:12:49;25.00;56.80
13412;DHT22;6777;51.474;7.218;2022-08-19T02:15:16;25.30;57.00
13412;DHT22;6777;51.474;7.218;2022-08-19T02:17:45;23.60;56.10
13412;DHT22;6777;51.474;7.218;2022-08-19T02:20:12;25.10;56.90
13412;DHT22;6777;51.474;7.218;2022-08-19T02:22:40;24.90;56.90
13412;DHT22;6777;51.474;7.218;2022-08-19T02:25:09;24.80;56.90
13412;DHT22;6777;51.474;7.218;2022-08-19T02:27:37;24.80;56.90
13412;DHT22;6777;51.474;7.218;2022-08-19T02:30:08;24.70;56.90
13412;DHT22;6777;51.474;7.218;2022-08-19T02:32:37;24.90;57.10
13412;DHT22;6777;51.474;7.218;2022-08-19T02:35:05;24.90;57.00
13412;DHT22;6777;51.474;7.218;2022-08-19T02:37:33;24.80;57.00
13412;DHT22;6777;51.474;7.218;2022-08-19T02:40:18;24.80;57.00
13412;DHT22;6777;51.474;7.218;2022-08-19T02:42:46;24.80;57.00
13412;DHT22;6777;51.474;7.218;2022-08-19T02:45:14;24.80;57.10
13412;DHT22;6777;51.474;7.218;2022-08-19T02:47:41;24.80;57.10
13412;DHT22;6777;51.474;7.218;2022-08-19T02:50:09;24.80;57.10
13412;DHT22;6777;51.474;7.218;2022-08-19T02:52:36;25.00;57.20
13412;DHT22;6777;51.474;7.218;2022-08-19T02:55:04;24.70;57.10
13412;DHT22;6777;51.474;7.218;2022-08-19T02:57:32;24.10;56.90
13412;DHT22;6777;51.474;7.218;2022-08-19T03:00:02;25.00;57.30
13412;DHT22;6777;51.474;7.218;2022-08-19T03:02:31;24.70;57.30
13412;DHT22;6777;51.474;7.218;2022-08-19T03:04:58;24.70;57.20
13412;DHT22;6777;51.474;7.218;2022-08-19T03:07:25;21.70;55.70
13412;DHT22;6777;51.474;7.218;2022-08-19T03:09:52;24.70;57.20
13412;DHT22;6777;51.474;7.218;2022-08-19T03:12:19;24.70;57.20
13412;DHT22;6777;51.474;7.218;2022-08-19T03:14:46;24.70;57.20
13412;DHT22;6777;51.474;7.218;2022-08-19T03:17:14;24.60;57.20
13412;DHT22;6777;51.474;7.218;2022-08-19T03:19:41;24.70;57.40
13412;DHT22;6777;51.474;7.218;2022-08-19T03:22:09;24.60;57.30
13412;DHT22;6777;51.474;7.218;2022-08-19T03:24:36;24.60;57.40
13412;DHT22;6777;51.474;7.218;2022-08-19T03:27:03;24.70;57.40
13412;DHT22;6777;51.474;7.218;2022-08-19T03:29:31;24.60;57.40
13412;DHT22;6777;51.474;7.218;2022-08-19T03:32:00;24.60;57.60
13412;DHT22;6777;51.474;7.218;2022-08-19T03:34:30;24.70;57.70
13412;DHT22;6777;51.474;7.218;2022-08-19T03:37:03;24.50;57.70
13412;DHT22;6777;51.474;7.218;2022-08-19T03:39:32;24.70;57.80
13412;DHT22;6777;51.474;7.218;2022-08-19T03:42:00;24.60;57.60
13412;DHT22;6777;51.474;7.218;2022-08-19T03:44:28;24.60;58.00
13412;DHT22;6777;51.474;7.218;2022-08-19T03:46:59;24.60;57.70
13412;DHT22;6777;51.474;7.218;2022-08-19T03:49:29;24.60;57.80
13412;DHT22;6777;51.474;7.218;2022-08-19T03:51:59;24.50;57.80
13412;DHT22;6777;51.474;7.218;2022-08-19T03:54:27;24.50;57.70
13412;DHT22;6777;51.474;7.218;2022-08-19T03:56:56;24.50;57.80
13412;DHT22;6777;51.474;7.218;2022-08-19T03:59:25;24.40;57.70
13412;DHT22;6777;51.474;7.218;2022-08-19T04:01:54;24.70;57.90
13412;DHT22;6777;51.474;7.218;2022-08-19T04:04:22;24.60;57.80
13412;DHT22;6777;51.474;7.218;2022-08-19T04:06:52;24.50;57.80
13412;DHT22;6777;51.474;7.218;2022-08-19T04:09:20;24.50;57.90
13412;DHT22;6777;51.474;7.218;2022-08-19T04:11:49;24.70;58.00
13412;DHT22;6777;51.474;7.218;2022-08-19T04:14:22;24.60;58.00
13412;DHT22;6777;51.474;7.218;2022-08-19T04:16:51;24.40;57.90
13412;DHT22;6777;51.474;7.218;2022-08-19T04:19:19;24.40;57.90
13412;DHT22;6777;51.474;7.218;2022-08-19T04:21:50;24.70;58.10
13412;DHT22;6777;51.474;7.218;2022-08-19T04:24:21;24.40;58.00
13412;DHT22;6777;51.474;7.218;2022-08-19T04:26:49;24.40;58.00
13412;DHT22;6777;51.474;7.218;2022-08-19T04:29:19;24.40;58.00
13412;DHT22;6777;51.474;7.218;2022-08-19T04:31:51;24.70;58.30
13412;DHT22;6777;51.474;7.218;2022-08-19T04:34:21;24.40;58.10
13412;DHT22;6777;51.474;7.218;2022-08-19T04:36:50;24.40;58.20
13412;DHT22;6777;51.474;7.218;2022-08-19T04:39:23;24.50;58.30
13412;DHT22;6777;51.474;7.218;2022-08-19T04:42:13;24.50;58.30
13412;DHT22;6777;51.474;7.218;2022-08-19T04:44:59;24.50;58.30
13412;DHT22;6777;51.474;7.218;2022-08-19T04:47:26;24.30;58.20
13412;DHT22;6777;51.474;7.218;2022-08-19T04:49:53;24.50;58.40
13412;DHT22;6777;51.474;7.218;2022-08-19T04:52:21;24.30;58.40
13412;DHT22;6777;51.474;7.218;2022-08-19T04:54:48;24.30;58.50
13412;DHT22;6777;51.474;7.218;2022-08-19T04:57:15;24.30;58.50
13412;DHT22;6777;51.474;7.218;2022-08-19T04:59:42;24.30;58.50
13412;DHT22;6777;51.474;7.218;2022-08-19T05:02:09;24.30;58.60
13412;DHT22;6777;51.474;7.218;2022-08-19T05:04:37;24.30;58.70
13412;DHT22;6777;51.474;7.218;2022-08-19T05:07:05;24.50;58.70
13412;DHT22;6777;51.474;7.218;2022-08-19T05:09:34;24.40;58.70
13412;DHT22;6777;51.474;7.218;2022-08-19T05:12:01;24.30;58.70
13412;DHT22;6777;51.474;7.218;2022-08-19T05:14:28;24.40;58.80
13412;DHT22;6777;51.474;7.218;2022-08-19T05:16:55;24.40;58.80
13412;DHT22;6777;51.474;7.218;2022-08-19T05:19:22;24.40;58.80
13412;DHT22;6777;51.474;7.218;2022-08-19T05:22:07;24.40;58.80
13412;DHT22;6777;51.474;7.218;2022-08-19T05:24:53;24.50;58.80
13412;DHT22;6777;51.474;7.218;2022-08-19T05:27:20;24.50;58.70
13412;DHT22;6777;51.474;7.218;2022-08-19T05:29:47;24.50;58.70
13412;DHT22;6777;51.474;7.218;2022-08-19T05:32:14;24.50;58.70
13412;DHT22;6777;51.474;7.218;2022-08-19T05:34:41;24.50;58.70
13412;DHT22;6777;51.474;7.218;2022-08-19T05:37:08;24.50;58.70
13412;DHT22;6777;51.474;7.218;2022-08-19T05:39:36;24.50;58.70
13412;DHT22;6777;51.474;7.218;2022-08-19T05:42:07;24.50;58.80
13412;DHT22;6777;51.474;7.218;2022-08-19T05:44:38;24.60;59.00
13412;DHT22;6777;51.474;7.218;2022-08-19T05:47:08;24.50;58.90
13412;DHT22;6777;51.474;7.218;2022-08-19T05:49:36;24.50;58.90
13412;DHT22;6777;51.474;7.218;2022-08-19T05:52:04;24.50;59.00
13412;DHT22;6777;51.474;7.218;2022-08-19T05:54:33;24.50;59.80
13412;DHT22;6777;51.474;7.218;2022-08-19T05:57:02;24.60;59.20
13412;DHT22;6777;51.474;7.218;2022-08-19T05:59:30;24.60;59.30
13412;DHT22;6777;51.474;7.218;2022-08-19T06:01:58;24.60;59.30
13412;DHT22;6777;51.474;7.218;2022-08-19T06:04:26;24.60;59.20
13412;DHT22;6777;51.474;7.218;2022-08-19T06:06:53;24.70;59.30
13412;DHT22;6777;51.474;7.218;2022-08-19T06:09:22;24.70;59.30
13412;DHT22;6777;51.474;7.218;2022-08-19T06:11:51;24.80;59.30
13412;DHT22;6777;51.474;7.218;2022-08-19T06:14:21;24.80;59.30
13412;DHT22;6777;51.474;7.218;2022-08-19T06:16:51;24.80;59.30
13412;DHT22;6777;51.474;7.218;2022-08-19T06:19:20;24.80;59.20
13412;DHT22;6777;51.474;7.218;2022-08-19T06:21:51;24.90;59.20
13412;DHT22;6777;51.474;7.218;2022-08-19T06:24:20;22.40;58.00
13412;DHT22;6777;51.474;7.218;2022-08-19T06:26:51;24.90;59.30
13412;DHT22;6777;51.474;7.218;2022-08-19T06:29:22;25.00;59.30
13412;DHT22;6777;51.474;7.218;2022-08-19T06:31:54;25.00;59.40
13412;DHT22;6777;51.474;7.218;2022-08-19T06:34:22;25.00;59.40
13412;DHT22;6777;51.474;7.218;2022-08-19T06:36:52;25.10;59.40
13412;DHT22;6777;51.474;7.218;2022-08-19T06:39:21;25.10;59.50
13412;DHT22;6777;51.474;7.218;2022-08-19T06:41:51;25.20;59.50
13412;DHT22;6777;51.474;7.218;2022-08-19T06:44:22;25.20;59.50
13412;DHT22;6777;51.474;7.218;2022-08-19T06:46:52;25.30;59.50
13412;DHT22;6777;51.474;7.218;2022-08-19T06:49:20;25.30;59.30
13412;DHT22;6777;51.474;7.218;2022-08-19T06:51:48;25.30;59.20
13412;DHT22;6777;51.474;7.218;2022-08-19T06:54:17;25.40;59.20
13412;DHT22;6777;51.474;7.218;2022-08-19T06:56:45;25.40;59.20
13412;DHT22;6777;51.474;7.218;2022-08-19T06:59:15;25.40;59.20
13412;DHT22;6777;51.474;7.218;2022-08-19T07:01:46;25.50;59.30
13412;DHT22;6777;51.474;7.218;2022-08-19T07:04:18;25.50;59.20
13412;DHT22;6777;51.474;7.218;2022-08-19T07:06:47;25.50;59.20
13412;DHT22;6777;51.474;7.218;2022-08-19T07:09:17;25.50;59.20
13412;DHT22;6777;51.474;7.218;2022-08-19T07:11:46;25.60;59.10
13412;DHT22;6777;51.474;7.218;2022-08-19T07:14:15;25.60;59.10
13412;DHT22;6777;51.474;7.218;2022-08-19T07:16:43;25.60;59.00
13412;DHT22;6777;51.474;7.218;2022-08-19T07:19:11;25.70;59.10
13412;DHT22;6777;51.474;7.218;2022-08-19T07:21:41;25.70;59.10
13412;DHT22;6777;51.474;7.218;2022-08-19T07:24:09;25.70;59.10
13412;DHT22;6777;51.474;7.218;2022-08-19T07:26:39;25.70;59.10
13412;DHT22;6777;51.474;7.218;2022-08-19T07:29:09;25.90;59.20
13412;DHT22;6777;51.474;7.218;2022-08-19T07:31:37;25.90;59.20
13412;DHT22;6777;51.474;7.218;2022-08-19T07:34:05;25.80;59.00
13412;DHT22;6777;51.474;7.218;2022-08-19T07:36:36;25.80;59.00
13412;DHT22;6777;51.474;7.218;2022-08-19T07:39:09;25.90;59.10
13412;DHT22;6777;51.474;7.218;2022-08-19T07:41:38;25.80;59.20
13412;DHT22;6777;51.474;7.218;2022-08-19T07:44:06;26.00;59.30
13412;DHT22;6777;51.474;7.218;2022-08-19T07:46:41;26.00;59.30
13412;DHT22;6777;51.474;7.218;2022-08-19T07:49:11;26.10;59.20
13412;DHT22;6777;51.474;7.218;2022-08-19T07:51:43;26.10;59.10
13412;DHT22;6777;51.474;7.218;2022-08-19T07:54:15;26.20;59.80
13412;DHT22;6777;51.474;7.218;2022-08-19T07:56:42;26.20;58.90
13412;DHT22;6777;51.474;7.218;2022-08-19T07:59:10;26.20;58.90
13412;DHT22;6777;51.474;7.218;2022-08-19T08:01:37;26.30;58.80
13412;DHT22;6777;51.474;7.218;2022-08-19T08:04:06;26.30;58.70
13412;DHT22;6777;51.474;7.218;2022-08-19T08:06:51;26.30;58.70
13412;DHT22;6777;51.474;7.218;2022-08-19T08:09:39;26.40;59.10
13412;DHT22;6777;51.474;7.218;2022-08-19T08:12:10;26.40;58.60
13412;DHT22;6777;51.474;7.218;2022-08-19T08:14:41;26.60;58.70
13412;DHT22;6777;51.474;7.218;2022-08-19T08:17:10;26.50;58.70
13412;DHT22;6777;51.474;7.218;2022-08-19T08:19:38;26.50;59.40
13412;DHT22;6777;51.474;7.218;2022-08-19T08:22:07;26.60;58.70
13412;DHT22;6777;51.474;7.218;2022-08-19T08:24:56;26.60;58.60
13412;DHT22;6777;51.474;7.218;2022-08-19T08:27:24;26.70;58.60
13412;DHT22;6777;51.474;7.218;2022-08-19T08:29:54;26.70;58.60
13412;DHT22;6777;51.474;7.218;2022-08-19T08:32:21;26.80;58.60
13412;DHT22;6777;51.474;7.218;2022-08-19T08:34:48;26.80;58.30
13412;DHT22;6777;51.474;7.218;2022-08-19T08:37:15;26.90;58.20
13412;DHT22;6777;51.474;7.218;2022-08-19T08:39:43;26.90;58.20
13412;DHT22;6777;51.474;7.218;2022-08-19T08:42:16;27.10;58.30
13412;DHT22;6777;51.474;7.218;2022-08-19T08:44:52;26.90;58.00
13412;DHT22;6777;51.474;7.218;2022-08-19T08:47:25;27.10;58.10
13412;DHT22;6777;51.474;7.218;2022-08-19T08:49:57;27.10;58.50
13412;DHT22;6777;51.474;7.218;2022-08-19T08:52:28;27.20;57.70
13412;DHT22;6777;51.474;7.218;2022-08-19T08:55:06;27.30;58.20
13412;DHT22;6777;51.474;7.218;2022-08-19T08:57:39;27.30;57.40
13412;DHT22;6777;51.474;7.218;2022-08-19T09:00:14;27.40;57.50
13412;DHT22;6777;51.474;7.218;2022-08-19T09:02:44;27.40;57.60
13412;DHT22;6777;51.474;7.218;2022-08-19T09:05:11;27.40;57.30
13412;DHT22;6777;51.474;7.218;2022-08-19T09:07:45;27.50;57.30
13412;DHT22;6777;51.474;7.218;2022-08-19T09:10:29;27.60;57.00
13412;DHT22;6777;51.474;7.218;2022-08-19T09:13:07;27.60;57.10
13412;DHT22;6777;51.474;7.218;2022-08-19T09:15:42;27.70;56.80
13412;DHT22;6777;51.474;7.218;2022-08-19T09:18:11;27.70;56.50
13412;DHT22;6777;51.474;7.218;2022-08-19T09:20:38;27.80;56.70
13412;DHT22;6777;51.474;7.218;2022-08-19T09:23:06;27.90;56.60
13412;DHT22;6777;51.474;7.218;2022-08-19T09:25:33;27.90;56.50
13412;DHT22;6777;51.474;7.218;2022-08-19T09:28:07;28.00;56.50
13412;DHT22;6777;51.474;7.218;2022-08-19T09:30:39;27.90;55.90
13412;DHT22;6777;51.474;7.218;2022-08-19T09:33:07;28.00;55.40
13412;DHT22;6777;51.474;7.218;2022-08-19T09:35:35;28.00;55.60
13412;DHT22;6777;51.474;7.218;2022-08-19T09:38:02;27.90;55.50
13412;DHT22;6777;51.474;7.218;2022-08-19T09:40:30;28.10;55.60
13412;DHT22;6777;51.474;7.218;2022-08-19T09:42:57;28.10;55.40
13412;DHT22;6777;51.474;7.218;2022-08-19T09:45:27;28.00;55.00
13412;DHT22;6777;51.474;7.218;2022-08-19T09:47:56;28.10;54.80
13412;DHT22;6777;51.474;7.218;2022-08-19T09:50:23;28.10;54.70
13412;DHT22;6777;51.474;7.218;2022-08-19T09:52:51;28.30;54.90
13412;DHT22;6777;51.474;7.218;2022-08-19T09:55:22;28.30;54.80
13412;DHT22;6777;51.474;7.218;2022-08-19T09:57:49;28.20;54.70
13412;DHT22;6777;51.474;7.218;2022-08-19T10:00:17;28.20;54.70
13412;DHT22;6777;51.474;7.218;2022-08-19T10:02:45;28.20;54.40
13412;DHT22;6777;51.474;7.218;2022-08-19T10:05:12;28.20;54.00
13412;DHT22;6777;51.474;7.218;2022-08-19T10:07:57;28.20;53.90
13412;DHT22;6777;51.474;7.218;2022-08-19T10:10:26;28.20;54.00
13412;DHT22;6777;51.474;7.218;2022-08-19T10:12:53;28.20;53.80
13412;DHT22;6777;51.474;7.218;2022-08-19T10:15:20;28.20;53.80
13412;DHT22;6777;51.474;7.218;2022-08-19T10:17:49;28.20;53.80
13412;DHT22;6777;51.474;7.218;2022-08-19T10:20:16;28.20;53.80
13412;DHT22;6777;51.474;7.218;2022-08-19T10:22:43;28.30;54.10
13412;DHT22;6777;51.474;7.218;2022-08-19T10:25:11;28.30;53.80
13412;DHT22;6777;51.474;7.218;2022-08-19T10:27:42;28.40;53.60
13412;DHT22;6777;51.474;7.218;2022-08-19T10:30:11;28.40;53.30
13412;DHT22;6777;51.474;7.218;2022-08-19T10:32:39;28.50;52.90
13412;DHT22;6777;51.474;7.218;2022-08-19T10:35:08;28.50;52.80
13412;DHT22;6777;51.474;7.218;2022-08-19T10:37:36;28.50;52.30
13412;DHT22;6777;51.474;7.218;2022-08-19T10:40:04;28.60;52.00
13412;DHT22;6777;51.474;7.218;2022-08-19T10:42:36;28.50;51.70
13412;DHT22;6777;51.474;7.218;2022-08-19T10:45:05;28.50;51.80
13412;DHT22;6777;51.474;7.218;2022-08-19T10:47:33;28.50;51.70
13412;DHT22;6777;51.474;7.218;2022-08-19T10:50:00;28.40;51.80
13412;DHT22;6777;51.474;7.218;2022-08-19T10:52:47;28.50;51.60
13412;DHT22;6777;51.474;7.218;2022-08-19T10:55:16;28.50;51.70
13412;DHT22;6777;51.474;7.218;2022-08-19T10:58:02;28.50;51.90
13412;DHT22;6777;51.474;7.218;2022-08-19T11:00:32;28.60;52.10
13412;DHT22;6777;51.474;7.218;2022-08-19T11:02:59;28.60;51.80
13412;DHT22;6777;51.474;7.218;2022-08-19T11:05:26;28.70;52.00
13412;DHT22;6777;51.474;7.218;2022-08-19T11:07:54;28.70;51.80
13412;DHT22;6777;51.474;7.218;2022-08-19T11:10:21;28.90;51.70
13412;DHT22;6777;51.474;7.218;2022-08-19T11:12:49;28.80;51.60
13412;DHT22;6777;51.474;7.218;2022-08-19T11:19:01;28.80;50.50
13412;DHT22;6777;51.474;7.218;2022-08-19T11:21:30;28.80;50.90
13412;DHT22;6777;51.474;7.218;2022-08-19T11:24:02;28.80;51.00
13412;DHT22;6777;51.474;7.218;2022-08-19T11:26:32;29.10;51.10
13412;DHT22;6777;51.474;7.218;2022-08-19T11:29:00;28.80;51.00
13412;DHT22;6777;51.474;7.218;2022-08-19T11:31:30;28.80;50.90
13412;DHT22;6777;51.474;7.218;2022-08-19T11:34:00;28.90;50.80
13412;DHT22;6777;51.474;7.218;2022-08-19T11:36:29;28.70;50.80
13412;DHT22;6777;51.474;7.218;2022-08-19T11:38:59;28.80;51.00
13412;DHT22;6777;51.474;7.218;2022-08-19T11:41:27;28.80;50.90
13412;DHT22;6777;51.474;7.218;2022-08-19T11:43:54;29.10;51.00
13412;DHT22;6777;51.474;7.218;2022-08-19T11:46:24;28.90;50.80
13412;DHT22;6777;51.474;7.218;2022-08-19T11:48:55;29.00;49.30
13412;DHT22;6777;51.474;7.218;2022-08-19T11:51:23;29.10;50.40
13412;DHT22;6777;51.474;7.218;2022-08-19T11:53:52;29.00;50.30
13412;DHT22;6777;51.474;7.218;2022-08-19T11:56:21;29.20;50.30
13412;DHT22;6777;51.474;7.218;2022-08-19T11:58:50;29.10;49.80
13412;DHT22;6777;51.474;7.218;2022-08-19T12:01:19;29.10;49.80
13412;DHT22;6777;51.474;7.218;2022-08-19T12:03:49;29.10;49.30
13412;DHT22;6777;51.474;7.218;2022-08-19T12:06:22;29.20;49.20
13412;DHT22;6777;51.474;7.218;2022-08-19T12:08:51;29.10;49.20
13412;DHT22;6777;51.474;7.218;2022-08-19T12:11:20;29.20;49.40
13412;DHT22;6777;51.474;7.218;2022-08-19T12:13:48;29.30;49.40
13412;DHT22;6777;51.474;7.218;2022-08-19T12:16:17;29.20;49.30
13412;DHT22;6777;51.474;7.218;2022-08-19T12:18:46;29.20;49.00
13412;DHT22;6777;51.474;7.218;2022-08-19T12:21:13;29.20;48.70
13412;DHT22;6777;51.474;7.218;2022-08-19T12:23:44;29.20;48.70
13412;DHT22;6777;51.474;7.218;2022-08-19T12:26:15;29.40;48.20
13412;DHT22;6777;51.474;7.218;2022-08-19T12:28:44;31.90;49.70
13412;DHT22;6777;51.474;7.218;2022-08-19T12:31:11;29.30;48.00
13412;DHT22;6777;51.474;7.218;2022-08-19T12:33:38;29.30;47.80
13412;DHT22;6777;51.474;7.218;2022-08-19T12:36:08;29.30;47.80
13412;DHT22;6777;51.474;7.218;2022-08-19T12:38:37;29.30;47.30
13412;DHT22;6777;51.474;7.218;2022-08-19T12:41:06;29.30;47.30
13412;DHT22;6777;51.474;7.218;2022-08-19T12:43:36;29.30;46.80
13412;DHT22;6777;51.474;7.218;2022-08-19T12:46:05;29.40;47.00
13412;DHT22;6777;51.474;7.218;2022-08-19T12:48:33;29.30;46.80
13412;DHT22;6777;51.474;7.218;2022-08-19T12:51:06;29.30;46.90
13412;DHT22;6777;51.474;7.218;2022-08-19T12:53:35;29.30;46.50
13412;DHT22;6777;51.474;7.218;2022-08-19T12:56:03;29.30;46.40
13412;DHT22;6777;51.474;7.218;2022-08-19T12:58:30;29.40;46.70
13412;DHT22;6777;51.474;7.218;2022-08-19T13:01:00;29.50;46.60
13412;DHT22;6777;51.474;7.218;2022-08-19T13:03:34;29.40;46.30
13412;DHT22;6777;51.474;7.218;2022-08-19T13:06:02;29.60;46.60
13412;DHT22;6777;51.474;7.218;2022-08-19T13:08:30;29.50;46.50
13412;DHT22;6777;51.474;7.218;2022-08-19T13:10:57;29.50;46.40
13412;DHT22;6777;51.474;7.218;2022-08-19T13:13:33;29.50;46.20
13412;DHT22;6777;51.474;7.218;2022-08-19T13:16:01;29.70;46.10
13412;DHT22;6777;51.474;7.218;2022-08-19T13:18:30;29.60;45.80
13412;DHT22;6777;51.474;7.218;2022-08-19T13:21:01;29.70;45.80
13412;DHT22;6777;51.474;7.218;2022-08-19T13:23:29;29.70;45.60
13412;DHT22;6777;51.474;7.218;2022-08-19T13:29:35;29.80;45.00
13412;DHT22;6777;51.474;7.218;2022-08-19T13:32:20;29.80;45.40
13412;DHT22;6777;51.474;7.218;2022-08-19T13:35:06;29.90;45.30
13412;DHT22;6777;51.474;7.218;2022-08-19T13:37:34;29.90;45.00
13412;DHT22;6777;51.474;7.218;2022-08-19T13:40:13;29.90;45.20
13412;DHT22;6777;51.474;7.218;2022-08-19T13:42:43;29.90;45.00
13412;DHT22;6777;51.474;7.218;2022-08-19T13:45:14;29.90;44.90
13412;DHT22;6777;51.474;7.218;2022-08-19T13:47:42;29.80;44.70
13412;DHT22;6777;51.474;7.218;2022-08-19T13:50:11;29.90;44.80
13412;DHT22;6777;51.474;7.218;2022-08-19T13:52:40;30.00;44.50
13412;DHT22;6777;51.474;7.218;2022-08-19T13:55:09;29.80;44.20
13412;DHT22;6777;51.474;7.218;2022-08-19T13:57:43;29.80;44.00
13412;DHT22;6777;51.474;7.218;2022-08-19T14:00:14;29.70;43.50
13412;DHT22;6777;51.474;7.218;2022-08-19T14:02:44;29.80;44.00
13412;DHT22;6777;51.474;7.218;2022-08-19T14:05:15;29.70;44.20
13412;DHT22;6777;51.474;7.218;2022-08-19T14:07:42;29.70;44.10
13412;DHT22;6777;51.474;7.218;2022-08-19T14:10:11;29.70;44.30
13412;DHT22;6777;51.474;7.218;2022-08-19T14:12:39;29.80;44.20
13412;DHT22;6777;51.474;7.218;2022-08-19T14:15:08;29.80;44.20
13412;DHT22;6777;51.474;7.218;2022-08-19T14:17:37;29.80;44.00
13412;DHT22;6777;51.474;7.218;2022-08-19T14:20:07;29.80;43.90
13412;DHT22;6777;51.474;7.218;2022-08-19T14:22:43;29.80;43.70
13412;DHT22;6777;51.474;7.218;2022-08-19T14:25:14;29.80;43.60
13412;DHT22;6777;51.474;7.218;2022-08-19T14:27:43;29.80;43.60
13412;DHT22;6777;51.474;7.218;2022-08-19T14:30:13;29.80;43.70
13412;DHT22;6777;51.474;7.218;2022-08-19T14:32:42;29.80;43.50
13412;DHT22;6777;51.474;7.218;2022-08-19T14:38:40;29.80;42.10
13412;DHT22;6777;51.474;7.218;2022-08-19T14:41:15;29.80;43.20
13412;DHT22;6777;51.474;7.218;2022-08-19T14:43:46;29.80;43.00
13412;DHT22;6777;51.474;7.218;2022-08-19T14:46:17;29.80;43.40
13412;DHT22;6777;51.474;7.218;2022-08-19T14:48:46;29.70;43.10
13412;DHT22;6777;51.474;7.218;2022-08-19T14:51:13;29.90;43.30
13412;DHT22;6777;51.474;7.218;2022-08-19T14:53:42;29.80;43.10
13412;DHT22;6777;51.474;7.218;2022-08-19T14:56:11;29.90;43.00
13412;DHT22;6777;51.474;7.218;2022-08-19T15:02:51;29.90;42.60
13412;DHT22;6777;51.474;7.218;2022-08-19T15:05:20;30.00;43.30
13412;DHT22;6777;51.474;7.218;2022-08-19T15:07:47;30.00;42.90
13412;DHT22;6777;51.474;7.218;2022-08-19T15:13:57;30.00;41.90
13412;DHT22;6777;51.474;7.218;2022-08-19T15:16:25;30.00;42.50
13412;DHT22;6777;51.474;7.218;2022-08-19T15:18:55;30.00;42.50
13412;DHT22;6777;51.474;7.218;2022-08-19T15:21:25;30.00;42.30
13412;DHT22;6777;51.474;7.218;2022-08-19T15:23:53;30.00;43.10
13412;DHT22;6777;51.474;7.218;2022-08-19T15:26:21;30.10;42.40
13412;DHT22;6777;51.474;7.218;2022-08-19T15:28:48;30.00;42.20
13412;DHT22;6777;51.474;7.218;2022-08-19T15:31:19;30.10;42.30
13412;DHT22;6777;51.474;7.218;2022-08-19T15:33:48;30.10;41.90
13412;DHT22;6777;51.474;7.218;2022-08-19T15:36:16;30.10;42.80
13412;DHT22;6777;51.474;7.218;2022-08-19T15:38:43;30.20;42.10
13412;DHT22;6777;51.474;7.218;2022-08-19T15:41:17;30.00;41.90
13412;DHT22;6777;51.474;7.218;2022-08-19T15:43:52;30.00;41.50
13412;DHT22;6777;51.474;7.218;2022-08-19T15:46:24;30.00;41.80
13412;DHT22;6777;51.474;7.218;2022-08-19T15:48:53;30.00;41.70
13412;DHT22;6777;51.474;7.218;2022-08-19T15:51:21;30.00;41.90
13412;DHT22;6777;51.474;7.218;2022-08-19T15:53:49;30.00;42.00
13412;DHT22;6777;51.474;7.218;2022-08-19T15:56:16;30.00;41.90
13412;DHT22;6777;51.474;7.218;2022-08-19T15:58:44;30.00;42.00
13412;DHT22;6777;51.474;7.218;2022-08-19T16:01:30;30.00;41.90
13412;DHT22;6777;51.474;7.218;2022-08-19T16:04:15;30.00;42.00
13412;DHT22;6777;51.474;7.218;2022-08-19T16:07:01;30.00;42.10
13412;DHT22;6777;51.474;7.218;2022-08-19T16:09:30;32.50;43.50
13412;DHT22;6777;51.474;7.218;2022-08-19T16:12:01;30.00;41.90
13412;DHT22;6777;51.474;7.218;2022-08-19T16:14:30;30.00;41.80
13412;DHT22;6777;51.474;7.218;2022-08-19T16:17:04;29.90;41.70
13412;DHT22;6777;51.474;7.218;2022-08-19T16:19:31;29.90;41.80